Bible Grove, Illinois
Current Conditions -  °F | °C
As of 8:35 AM on Saturday 22 Nov 2014 (Local Time) from KFOA Reporting Station
Clear Clear  
Wind Chill: 51°   Ceiling: Unl
Heat Index: 51°   Visibility: 10mi
Dew Point: 42°   Wind: 13mph
Humidity: 71%   Direction: 200°SSW
Pressure: 30.17"   Gusts: NA
Location:  38.8267°N, 88.5024°W
Report Text: KFOA 221435Z AUTO 20011KT 10SM CLR 11/06 A3017 RMK AO2 T01060056
Loading
Personal Weather Stations






























Interactive Weather Map New forecast layout! Learn more

10-Day Weather Forecast

Advertisements
Track Severe Weather on mobile